Time;durP1;ratioP1;P1;durP2;ratioP2;P2;SDS_P1;SDS_P2;PMS_P1;PMS_P2;Temp;Humidity;BMP_temperature;BMP_pressure;BME280_temperature;BME280_humidity;BME280_pressure;Samples;Min_cycle;Max_cycle;Signal;HPM_P1;HPM_P2
2022/10/19 00:02:03;;;;;;;1.73;0.90;;;20.70;93.90;;;;;;6185109;23;45159;-73
2022/10/19 00:04:30;;;;;;;2.13;1.02;;;20.60;93.80;;;;;;6184999;23;45305;-73
2022/10/19 00:06:56;;;;;;;2.50;0.80;;;20.60;93.70;;;;;;6184537;23;46370;-73
2022/10/19 00:09:23;;;;;;;1.10;0.82;;;20.60;93.90;;;;;;6184965;23;45979;-73
2022/10/19 00:11:51;;;;;;;2.47;1.05;;;20.60;93.80;;;;;;6185519;23;45248;-73
2022/10/19 00:14:20;;;;;;;2.70;1.05;;;20.60;93.80;;;;;;6185303;23;45351;-73
2022/10/19 00:16:49;;;;;;;1.05;0.80;;;20.60;93.80;;;;;;6183997;23;48179;-73
2022/10/19 00:19:20;;;;;;;1.65;0.77;;;20.60;93.80;;;;;;6185310;23;45149;-73
2022/10/19 00:21:47;;;;;;;1.80;0.98;;;20.60;93.80;;;;;;6185418;23;45256;-74
2022/10/19 00:24:14;;;;;;;2.90;0.98;;;20.60;93.80;;;;;;6185217;23;45349;-74
2022/10/19 00:26:41;;;;;;;2.05;0.88;;;20.60;93.90;;;;;;6184697;23;47458;-74
2022/10/19 00:29:11;;;;;;;2.45;1.00;;;20.60;93.80;;;;;;6184910;23;45141;-74
2022/10/19 00:31:38;;;;;;;1.42;0.80;;;20.60;93.70;;;;;;6185289;23;45387;-74
2022/10/19 00:34:05;;;;;;;1.10;0.85;;;20.60;93.70;;;;;;6185317;23;45524;-74
2022/10/19 00:36:35;;;;;;;4.38;0.80;;;20.60;93.80;;;;;;6184804;23;48006;-74
2022/10/19 00:39:03;;;;;;;1.83;0.80;;;20.60;93.60;;;;;;6185238;23;45357;-73
2022/10/19 00:41:33;;;;;;;3.47;1.20;;;20.60;93.80;;;;;;6185459;23;45366;-74
2022/10/19 00:44:03;;;;;;;2.25;0.90;;;20.60;93.80;;;;;;6185489;23;45339;-74
2022/10/19 00:46:32;;;;;;;1.75;0.68;;;20.60;93.50;;;;;;6184685;23;46517;-73
2022/10/19 00:49:02;;;;;;;1.63;0.88;;;20.60;93.70;;;;;;6185146;23;45155;-74
2022/10/19 00:51:31;;;;;;;1.38;0.55;;;20.60;93.60;;;;;;6185422;23;45289;-73
2022/10/19 00:54:01;;;;;;;1.58;0.80;;;20.60;93.40;;;;;;6185221;23;45164;-74
2022/10/19 00:56:27;;;;;;;3.58;1.05;;;20.60;93.40;;;;;;6185146;23;48204;-73
2022/10/19 00:58:55;;;;;;;3.03;0.93;;;20.60;93.30;;;;;;6185037;23;45335;-74
2022/10/19 01:01:24;;;;;;;1.58;0.82;;;20.60;93.30;;;;;;6184890;23;45150;-74
2022/10/19 01:03:51;;;;;;;2.28;1.00;;;20.60;93.20;;;;;;6185378;23;45336;-73
2022/10/19 01:06:19;;;;;;;3.20;0.85;;;20.60;93.20;;;;;;6184674;23;46576;-74
2022/10/19 01:08:46;;;;;;;1.67;0.80;;;20.50;93.30;;;;;;6184844;23;45102;-74
2022/10/19 01:11:26;;;;;;;2.25;1.20;;;20.50;93.30;;;;;;6185291;23;45368;-73
2022/10/19 01:14:01;;;;;;;1.55;0.88;;;20.50;93.40;;;;;;6185237;23;45314;-74
2022/10/19 01:16:34;;;;;;;2.22;0.88;;;20.50;93.20;;;;;;6183567;23;45323;-74
2022/10/19 01:19:15;;;;;;;1.50;0.85;;;20.50;93.40;;;;;;6185508;23;45293;-74
2022/10/19 01:21:46;;;;;;;1.15;0.60;;;20.50;93.30;;;;;;6184561;23;45404;-74
2022/10/19 01:24:43;;;;;;;2.22;0.90;;;20.50;93.30;;;;;;6185227;23;45415;-73
2022/10/19 01:27:45;;;;;;;1.30;0.70;;;20.60;93.30;;;;;;6184616;23;46527;-74
2022/10/19 01:30:17;;;;;;;1.63;0.98;;;20.50;93.10;;;;;;6134602;23;46038;-74
2022/10/19 01:32:54;;;;;;;1.75;1.05;;;20.60;93.10;;;;;;6185555;23;45116;-74
2022/10/19 01:35:28;;;;;;;1.77;0.80;;;20.60;93.10;;;;;;6184850;23;45230;-74
2022/10/19 01:38:07;;;;;;;2.08;0.70;;;20.50;93.10;;;;;;6184834;23;48750;-74
2022/10/19 01:40:42;;;;;;;1.10;0.70;;;20.60;93.20;;;;;;6185134;23;45241;-74
2022/10/19 01:43:13;;;;;;;2.03;0.70;;;20.60;93.10;;;;;;6184985;23;45245;-74
2022/10/19 01:45:47;;;;;;;1.58;0.70;;;20.60;93.10;;;;;;6185636;23;45290;-74
2022/10/19 01:48:18;;;;;;;1.38;0.70;;;20.60;93.10;;;;;;6184932;23;45468;-74
2022/10/19 01:50:50;;;;;;;0.68;0.57;;;20.60;93.20;;;;;;6184894;23;45250;-74
2022/10/19 01:53:19;;;;;;;2.00;0.90;;;20.60;93.10;;;;;;6185259;23;45230;-74
2022/10/19 01:55:51;;;;;;;1.92;0.80;;;20.60;92.80;;;;;;6185244;23;45346;-74
2022/10/19 01:58:23;;;;;;;1.33;0.80;;;20.60;92.80;;;;;;6184660;23;46276;-74
2022/10/19 02:00:53;;;;;;;0.95;0.80;;;20.60;92.60;;;;;;6185200;23;45239;-72
2022/10/19 02:03:21;;;;;;;2.30;1.00;;;20.50;92.70;;;;;;6185243;23;45225;-74
2022/10/19 02:05:50;;;;;;;1.42;0.63;;;20.50;92.60;;;;;;6184975;23;45431;-74
2022/10/19 02:08:23;;;;;;;1.00;0.68;;;20.50;92.60;;;;;;6184959;23;46280;-74
2022/10/19 02:14:16;;;;;;;2.00;1.02;;;20.50;92.50;;;;;;6194501;22;45431;-74
2022/10/19 02:16:49;;;;;;;1.20;0.80;;;20.50;92.60;;;;;;6183962;23;45316;-74
2022/10/19 02:19:17;;;;;;;1.00;0.70;;;20.50;92.50;;;;;;6184842;23;48152;-74
2022/10/19 02:21:44;;;;;;;1.08;0.57;;;20.50;92.60;;;;;;6184725;23;45124;-74
2022/10/19 02:24:11;;;;;;;1.30;0.70;;;20.50;92.50;;;;;;6184914;23;45218;-74
2022/10/19 02:26:39;;;;;;;1.23;0.68;;;20.50;92.40;;;;;;6185209;23;45354;-74
2022/10/19 02:29:07;;;;;;;1.23;0.60;;;20.50;92.50;;;;;;6185859;23;46490;-74
2022/10/19 02:31:34;;;;;;;1.17;0.75;;;20.50;92.40;;;;;;6186323;23;45428;-74
2022/10/19 02:34:02;;;;;;;1.77;0.57;;;20.50;92.30;;;;;;6186276;23;45371;-74
2022/10/19 02:36:29;;;;;;;1.40;0.70;;;20.50;92.30;;;;;;6186413;23;45485;-74
2022/10/19 02:38:56;;;;;;;2.05;0.70;;;20.50;92.10;;;;;;6186139;23;47298;-74
2022/10/19 02:41:27;;;;;;;2.38;0.63;;;20.50;92.20;;;;;;6185758;23;45236;-74
2022/10/19 02:43:58;;;;;;;1.42;0.70;;;20.50;92.70;;;;;;6186440;23;45141;-74
2022/10/19 02:46:30;;;;;;;1.23;0.60;;;20.50;92.50;;;;;;6185603;23;45204;-74
2022/10/19 02:48:58;;;;;;;1.45;0.82;;;20.50;92.10;;;;;;6185972;23;47682;-74
2022/10/19 02:51:31;;;;;;;1.40;0.63;;;20.50;92.10;;;;;;6185067;23;45169;-75
2022/10/19 02:53:58;;;;;;;2.58;0.60;;;20.50;92.00;;;;;;6186759;23;45248;-74
2022/10/19 02:56:25;;;;;;;1.45;0.70;;;20.50;91.90;;;;;;6186124;23;45347;-74
2022/10/19 02:58:52;;;;;;;1.73;0.80;;;20.50;91.80;;;;;;6186361;23;45118;-74
2022/10/19 03:02:06;;;;;;;1.23;0.70;;;20.50;91.80;;;;;;6186171;23;45123;-74
2022/10/19 03:04:33;;;;;;;2.10;0.68;;;20.50;91.70;;;;;;6186163;23;45249;-74
2022/10/19 03:07:01;;;;;;;1.33;0.75;;;20.50;91.70;;;;;;6186459;23;45402;-74
2022/10/19 03:09:28;;;;;;;1.88;0.73;;;20.50;91.80;;;;;;6185924;23;45449;-74
2022/10/19 03:11:55;;;;;;;1.48;0.85;;;20.50;91.70;;;;;;6186363;23;45229;-74
2022/10/19 03:14:22;;;;;;;1.13;0.73;;;20.50;91.60;;;;;;6185978;23;45253;-74
2022/10/19 03:16:49;;;;;;;1.70;0.70;;;20.50;91.70;;;;;;6186347;23;45512;-74
2022/10/19 03:19:15;;;;;;;0.95;0.70;;;20.50;91.60;;;;;;6185954;23;46830;-74
2022/10/19 03:21:42;;;;;;;1.33;0.80;;;20.50;91.50;;;;;;6186057;23;45198;-74
2022/10/19 03:24:10;;;;;;;1.35;0.68;;;20.50;91.60;;;;;;6186049;23;45430;-74
2022/10/19 03:26:37;;;;;;;1.85;0.80;;;20.50;91.70;;;;;;6185799;23;45226;-74
2022/10/19 03:29:04;;;;;;;1.83;0.60;;;20.50;91.80;;;;;;6185617;23;46814;-74
2022/10/19 03:31:31;;;;;;;1.27;0.73;;;20.50;91.80;;;;;;6186547;23;45262;-74
2022/10/19 03:33:58;;;;;;;2.95;0.85;;;20.50;91.60;;;;;;6186069;23;45269;-74
2022/10/19 03:36:26;;;;;;;2.33;0.85;;;20.50;91.60;;;;;;6185992;23;45138;-74
2022/10/19 03:38:54;;;;;;;0.95;0.50;;;20.50;91.60;;;;;;6185775;23;45247;-74
2022/10/19 03:41:24;;;;;;;1.65;0.77;;;20.50;91.50;;;;;;6186240;23;45332;-74
2022/10/19 03:43:51;;;;;;;1.80;1.02;;;20.50;91.60;;;;;;6186856;23;45250;-74
2022/10/19 03:46:19;;;;;;;1.08;0.70;;;20.50;91.70;;;;;;6186513;23;45223;-74
2022/10/19 03:48:46;;;;;;;0.50;0.50;;;20.50;91.50;;;;;;6185958;23;47918;-74
2022/10/19 03:51:15;;;;;;;1.30;0.65;;;20.50;91.60;;;;;;6186038;23;45678;-74
2022/10/19 03:53:42;;;;;;;1.77;0.60;;;20.50;91.70;;;;;;6185720;23;45292;-74
2022/10/19 03:56:11;;;;;;;2.92;0.82;;;20.50;91.40;;;;;;6186539;23;45324;-74
2022/10/19 03:58:41;;;;;;;1.77;0.90;;;20.50;91.80;;;;;;6186180;23;46537;-74
2022/10/19 04:01:10;;;;;;;1.40;0.80;;;20.50;91.30;;;;;;6186234;23;45194;-74
2022/10/19 04:03:37;;;;;;;2.53;1.05;;;20.50;91.20;;;;;;6186444;23;45213;-74
2022/10/19 04:06:05;;;;;;;1.85;0.75;;;20.50;91.10;;;;;;6186484;23;45503;-74
2022/10/19 04:08:33;;;;;;;1.73;0.63;;;20.50;91.20;;;;;;6185964;23;46154;-75
2022/10/19 04:11:01;;;;;;;1.73;0.68;;;20.50;91.10;;;;;;6186602;23;45244;-74
2022/10/19 04:13:28;;;;;;;3.05;0.80;;;20.50;91.10;;;;;;6186476;23;45153;-74
2022/10/19 04:15:56;;;;;;;0.98;0.50;;;20.50;91.10;;;;;;6185675;23;45236;-74
2022/10/19 04:18:23;;;;;;;1.35;0.65;;;20.50;91.00;;;;;;6185912;23;47348;-74
2022/10/19 04:20:56;;;;;;;1.92;0.80;;;20.50;91.20;;;;;;6185892;23;45162;-74
2022/10/19 04:23:23;;;;;;;1.35;0.88;;;20.50;91.10;;;;;;6186452;23;45146;-74
2022/10/19 04:25:50;;;;;;;1.48;0.77;;;20.50;91.30;;;;;;6186482;23;45387;-74
2022/10/19 04:28:16;;;;;;;1.35;0.68;;;20.50;91.20;;;;;;6185809;23;47349;-74
2022/10/19 04:31:18;;;;;;;0.63;0.63;;;20.50;91.20;;;;;;6186192;23;45150;-74
2022/10/19 04:33:45;;;;;;;1.48;0.68;;;20.50;91.30;;;;;;6186700;23;45140;-73
2022/10/19 04:36:12;;;;;;;2.25;0.90;;;20.50;91.30;;;;;;6186575;23;45348;-74
2022/10/19 04:38:39;;;;;;;1.90;0.95;;;20.50;91.40;;;;;;6185852;23;47372;-74
2022/10/19 04:41:08;;;;;;;1.95;0.88;;;20.50;91.20;;;;;;6186065;23;45177;-74
2022/10/19 04:43:35;;;;;;;1.75;0.88;;;20.50;91.10;;;;;;6186054;23;45202;-74
2022/10/19 04:46:03;;;;;;;1.00;0.80;;;20.50;91.20;;;;;;6186713;23;45105;-74
2022/10/19 04:48:32;;;;;;;0.80;0.60;;;20.50;91.40;;;;;;6186329;23;47684;-74
2022/10/19 04:50:58;;;;;;;3.17;1.05;;;20.50;91.10;;;;;;6185929;23;45087;-74
2022/10/19 04:53:25;;;;;;;1.58;0.82;;;20.50;90.80;;;;;;6186653;23;45288;-74
2022/10/19 04:55:52;;;;;;;1.92;0.80;;;20.50;90.90;;;;;;6186420;23;45505;-74
2022/10/19 04:58:19;;;;;;;5.35;1.20;;;20.50;91.10;;;;;;6186251;23;48515;-74
2022/10/19 05:04:10;;;;;;;1.23;0.70;;;20.40;90.20;;;;;;6186849;23;45150;-74
2022/10/19 05:06:38;;;;;;;1.15;0.85;;;20.40;90.00;;;;;;6186666;23;45543;-75
2022/10/19 05:09:04;;;;;;;2.45;1.20;;;20.40;90.00;;;;;;6186205;23;45615;-74
2022/10/19 05:11:31;;;;;;;3.28;0.93;;;20.40;90.10;;;;;;6186470;23;45218;-74
2022/10/19 05:13:58;;;;;;;1.73;0.70;;;20.40;90.00;;;;;;6186459;23;45184;-74
2022/10/19 05:16:25;;;;;;;2.70;1.10;;;20.40;90.30;;;;;;6186067;23;45174;-74
2022/10/19 05:18:54;;;;;;;3.20;0.80;;;20.40;90.60;;;;;;6186008;23;46389;-73
2022/10/19 05:21:23;;;;;;;2.97;1.00;;;20.40;90.70;;;;;;6185708;23;46386;-74
2022/10/19 05:23:52;;;;;;;1.48;0.80;;;20.40;90.80;;;;;;6185653;23;45227;-73
2022/10/19 05:26:20;;;;;;;3.47;1.33;;;20.40;90.90;;;;;;6185343;23;45205;-73
2022/10/19 05:28:48;;;;;;;2.47;1.02;;;20.40;90.90;;;;;;6185880;23;45142;-74
2022/10/19 05:31:17;;;;;;;1.80;0.98;;;20.40;90.90;;;;;;6185296;23;45216;-74
2022/10/19 05:33:45;;;;;;;4.03;1.48;;;20.40;90.90;;;;;;6185580;23;45228;-74
2022/10/19 05:36:17;;;;;;;2.35;0.90;;;20.50;91.00;;;;;;6185709;23;45180;-74
2022/10/19 05:38:47;;;;;;;2.90;1.10;;;20.50;91.00;;;;;;6185536;23;45370;-74
2022/10/19 05:41:14;;;;;;;2.10;0.93;;;20.50;91.10;;;;;;6186062;23;45050;-74
2022/10/19 05:43:41;;;;;;;3.33;1.20;;;20.50;91.20;;;;;;6186371;23;45162;-74
2022/10/19 05:46:10;;;;;;;4.00;1.48;;;20.50;91.00;;;;;;6186367;23;45270;-75
2022/10/19 05:48:37;;;;;;;1.92;0.93;;;20.40;90.70;;;;;;6185730;23;46177;-75
2022/10/19 05:51:06;;;;;;;2.08;1.10;;;20.50;90.60;;;;;;6183928;23;45313;-74
2022/10/19 05:53:34;;;;;;;2.60;1.20;;;20.50;90.30;;;;;;6183216;23;45249;-74
2022/10/19 05:56:04;;;;;;;2.60;1.02;;;20.50;90.30;;;;;;6183387;23;45543;-74
2022/10/19 05:58:31;;;;;;;3.03;1.10;;;20.50;90.20;;;;;;6183686;23;48218;-74
2022/10/19 06:01:00;;;;;;;3.05;1.20;;;20.40;90.20;;;;;;6182992;23;45698;-74
2022/10/19 06:03:27;;;;;;;4.13;1.20;;;20.40;90.20;;;;;;6184558;23;45290;-74
2022/10/19 06:05:55;;;;;;;1.88;1.10;;;20.40;89.90;;;;;;6185182;23;45448;-74
2022/10/19 06:08:23;;;;;;;3.95;1.30;;;20.40;90.00;;;;;;6182555;23;47251;-73
2022/10/19 06:10:51;;;;;;;2.60;1.10;;;20.40;89.70;;;;;;6183505;23;45241;-74
2022/10/19 06:13:20;;;;;;;3.65;1.48;;;20.40;89.40;;;;;;6184328;23;45228;-74
2022/10/19 06:15:50;;;;;;;2.53;1.30;;;20.30;88.90;;;;;;6183197;23;45486;-74
2022/10/19 06:18:17;;;;;;;5.05;1.80;;;20.30;88.90;;;;;;6183464;23;46611;-74
2022/10/19 06:20:44;;;;;;;3.80;1.50;;;20.30;88.60;;;;;;6182977;23;45241;-74
2022/10/19 06:23:11;;;;;;;3.10;1.30;;;20.40;89.10;;;;;;6184200;23;45428;-74
2022/10/19 06:25:37;;;;;;;3.15;1.33;;;20.40;89.00;;;;;;6184349;23;45563;-74
2022/10/19 06:28:04;;;;;;;3.50;1.42;;;20.40;89.10;;;;;;6180882;23;45349;-74
2022/10/19 06:30:32;;;;;;;3.95;1.55;;;20.40;89.40;;;;;;6183544;23;46253;-73
2022/10/19 06:32:59;;;;;;;3.42;1.35;;;20.40;89.60;;;;;;6184481;23;45313;-74
2022/10/19 06:35:26;;;;;;;2.13;1.35;;;20.40;89.50;;;;;;6184601;23;45217;-74
2022/10/19 06:37:55;;;;;;;2.30;1.00;;;20.40;89.70;;;;;;6183568;23;45632;-73
2022/10/19 06:40:22;;;;;;;3.28;1.02;;;20.40;89.80;;;;;;6183219;23;45276;-74
2022/10/19 06:42:49;;;;;;;3.17;1.30;;;20.40;89.90;;;;;;6183957;23;45290;-73
2022/10/19 06:45:17;;;;;;;3.38;1.40;;;20.50;89.90;;;;;;6184056;23;45427;-74
2022/10/19 06:47:45;;;;;;;2.58;1.38;;;20.40;90.00;;;;;;6184080;23;47700;-74
2022/10/19 06:50:12;;;;;;;2.53;1.23;;;20.40;90.40;;;;;;6185043;23;45353;-74
2022/10/19 06:52:39;;;;;;;2.25;1.00;;;20.40;90.10;;;;;;6184401;23;45516;-73
2022/10/19 06:55:08;;;;;;;2.33;1.10;;;20.40;90.10;;;;;;6184460;23;45542;-74
2022/10/19 06:57:35;;;;;;;2.60;1.13;;;20.40;90.00;;;;;;6184849;23;46446;-73
2022/10/19 07:00:01;;;;;;;1.95;1.15;;;20.40;90.10;;;;;;6184191;23;46167;-74
2022/10/19 07:02:28;;;;;;;1.30;0.90;;;20.40;90.10;;;;;;6185285;23;45221;-74
2022/10/19 07:04:56;;;;;;;3.22;1.13;;;20.40;90.10;;;;;;6185710;23;45191;-74
2022/10/19 07:07:23;;;;;;;2.60;1.20;;;20.40;90.10;;;;;;6185528;23;45425;-72
2022/10/19 07:09:50;;;;;;;4.68;1.30;;;20.40;90.20;;;;;;6186158;23;45300;-74
2022/10/19 07:12:17;;;;;;;1.80;1.08;;;20.50;90.30;;;;;;6186132;23;45244;-74
2022/10/19 07:14:44;;;;;;;1.73;1.10;;;20.40;90.30;;;;;;6185824;23;45217;-75
2022/10/19 07:17:11;;;;;;;2.47;1.05;;;20.50;90.40;;;;;;6185783;23;47617;-74
2022/10/19 07:19:38;;;;;;;1.88;1.00;;;20.50;90.30;;;;;;6186348;23;45265;-75
2022/10/19 07:22:06;;;;;;;3.05;1.33;;;20.50;90.30;;;;;;6186569;23;45318;-74
2022/10/19 07:24:33;;;;;;;2.90;1.00;;;20.50;90.30;;;;;;6186460;23;45182;-74
2022/10/19 07:27:00;;;;;;;2.08;1.13;;;20.50;90.30;;;;;;6185840;23;46051;-74
2022/10/19 07:29:27;;;;;;;1.27;0.95;;;20.50;90.30;;;;;;6185381;23;45209;-75
2022/10/19 07:31:53;;;;;;;2.60;0.90;;;20.50;90.30;;;;;;6186265;23;45353;-74
2022/10/19 07:34:20;;;;;;;2.50;1.10;;;20.50;90.30;;;;;;6186488;23;45381;-74
2022/10/19 07:36:47;;;;;;;1.92;0.82;;;20.50;90.30;;;;;;6185552;23;46874;-74
2022/10/19 07:39:16;;;;;;;1.48;0.95;;;20.50;90.30;;;;;;6186194;23;45185;-74
2022/10/19 07:41:44;;;;;;;3.83;1.05;;;20.50;90.30;;;;;;6186009;23;45274;-74
2022/10/19 07:44:11;;;;;;;3.17;0.90;;;20.50;90.30;;;;;;6185803;23;45384;-74
2022/10/19 07:46:39;;;;;;;1.45;0.90;;;20.50;90.40;;;;;;6159360;23;45352;-74
2022/10/19 07:49:08;;;;;;;2.17;0.95;;;20.50;90.40;;;;;;6185720;23;45268;-74
2022/10/19 07:51:35;;;;;;;1.92;1.08;;;20.50;90.40;;;;;;6186458;23;45381;-74
2022/10/19 07:54:03;;;;;;;1.90;1.05;;;20.50;90.40;;;;;;6186316;23;45352;-74
2022/10/19 07:56:31;;;;;;;2.38;1.00;;;20.50;90.40;;;;;;6185128;23;46491;-74
2022/10/19 07:58:59;;;;;;;1.70;0.80;;;20.50;90.30;;;;;;6185322;23;45226;-74
2022/10/19 08:01:27;;;;;;;1.80;1.05;;;20.50;90.50;;;;;;6184848;23;45229;-74
2022/10/19 08:03:56;;;;;;;2.55;0.90;;;20.50;90.40;;;;;;6185474;23;45143;-75
2022/10/19 08:06:24;;;;;;;2.88;0.90;;;20.50;90.40;;;;;;6185185;23;45460;-74
2022/10/19 08:08:52;;;;;;;2.05;0.80;;;20.50;90.50;;;;;;6185485;23;45629;-74
2022/10/19 08:11:21;;;;;;;2.15;0.80;;;20.50;90.60;;;;;;6185552;23;45182;-74
2022/10/19 08:13:50;;;;;;;1.40;0.80;;;20.50;90.60;;;;;;6185072;23;45531;-74
2022/10/19 08:16:22;;;;;;;2.92;1.08;;;20.50;90.60;;;;;;6185568;23;46388;-75
2022/10/19 08:18:49;;;;;;;1.92;0.95;;;20.50;90.50;;;;;;6185708;23;45197;-74
2022/10/19 08:21:16;;;;;;;1.45;0.60;;;20.50;90.60;;;;;;6185872;23;45154;-74
2022/10/19 08:23:43;;;;;;;1.17;0.70;;;20.50;90.70;;;;;;6185500;23;45297;-74
2022/10/19 08:26:10;;;;;;;1.60;1.02;;;20.50;90.70;;;;;;6182174;23;46667;-73
2022/10/19 08:28:36;;;;;;;1.75;0.88;;;20.50;90.70;;;;;;6183284;23;45292;-72
2022/10/19 08:31:11;;;;;;;1.50;0.70;;;20.50;90.70;;;;;;6182934;23;45265;-74
2022/10/19 08:33:38;;;;;;;2.38;0.85;;;20.50;90.50;;;;;;6183212;23;45460;-74
2022/10/19 08:36:06;;;;;;;1.38;0.70;;;20.50;90.40;;;;;;6183861;23;46386;-71
2022/10/19 08:38:34;;;;;;;11.70;1.60;;;20.50;90.30;;;;;;6184403;23;45377;-74
2022/10/19 08:41:13;;;;;;;5.10;1.10;;;20.50;90.10;;;;;;6185214;23;45407;-74
2022/10/19 08:43:48;;;;;;;3.60;1.05;;;20.50;90.10;;;;;;6185909;23;45377;-74
2022/10/19 08:46:23;;;;;;;6.43;1.27;;;20.50;90.10;;;;;;6185305;23;46530;-74
2022/10/19 08:48:51;;;;;;;3.63;1.05;;;20.50;90.10;;;;;;6185548;23;45203;-74
2022/10/19 08:51:18;;;;;;;1.48;0.98;;;20.50;90.00;;;;;;6186354;23;45229;-74
2022/10/19 08:53:51;;;;;;;4.07;0.88;;;20.50;89.80;;;;;;6184985;23;45190;-74
2022/10/19 08:56:25;;;;;;;2.17;0.80;;;20.50;89.60;;;;;;6184612;23;45380;-74
2022/10/19 08:59:05;;;;;;;2.53;1.10;;;20.50;89.50;;;;;;6185643;23;45826;-74
2022/10/19 09:01:40;;;;;;;2.67;1.05;;;20.50;89.00;;;;;;6185027;23;45209;-74
2022/10/19 09:04:14;;;;;;;2.88;1.20;;;20.50;89.10;;;;;;6185255;23;45264;-74
2022/10/19 09:06:52;;;;;;;1.70;0.85;;;20.50;89.00;;;;;;6185168;23;47140;-74
2022/10/19 09:09:20;;;;;;;1.08;0.80;;;20.50;89.10;;;;;;6185468;23;45209;-74
2022/10/19 09:11:50;;;;;;;2.70;0.98;;;20.50;88.60;;;;;;6185560;23;45292;-74
2022/10/19 09:14:22;;;;;;;1.30;0.90;;;20.60;88.40;;;;;;6185824;23;45467;-74
2022/10/19 09:16:54;;;;;;;2.28;0.93;;;20.60;88.20;;;;;;6185111;23;45382;-74
2022/10/19 09:19:24;;;;;;;1.77;0.90;;;20.60;87.90;;;;;;6185511;23;45228;-74
2022/10/19 09:21:55;;;;;;;1.90;0.77;;;20.60;87.50;;;;;;6185226;23;45284;-73
2022/10/19 09:24:29;;;;;;;4.07;1.08;;;20.60;87.30;;;;;;6185392;23;45113;-74
2022/10/19 09:26:58;;;;;;;3.15;0.88;;;20.60;87.20;;;;;;6185034;23;47500;-74
2022/10/19 09:29:29;;;;;;;1.35;0.75;;;20.60;87.20;;;;;;6184979;23;45235;-74
2022/10/19 09:32:00;;;;;;;3.30;1.30;;;20.60;87.20;;;;;;6185152;23;45292;-74
2022/10/19 09:34:32;;;;;;;2.00;0.80;;;20.60;87.10;;;;;;6185021;23;45438;-74
2022/10/19 09:37:00;;;;;;;2.38;0.82;;;20.60;87.00;;;;;;6185538;23;45323;-74
2022/10/19 09:39:28;;;;;;;2.17;0.80;;;20.60;86.80;;;;;;6186217;23;45156;-74
2022/10/19 09:41:57;;;;;;;1.65;0.60;;;20.60;86.90;;;;;;6187016;23;45187;-74
2022/10/19 09:44:25;;;;;;;1.42;0.70;;;20.60;86.90;;;;;;6186313;23;45395;-74
2022/10/19 09:47:02;;;;;;;1.65;0.85;;;20.60;87.20;;;;;;6183177;23;46613;-72
2022/10/19 09:49:40;;;;;;;2.17;0.90;;;20.60;87.30;;;;;;6185847;23;45280;-72
2022/10/19 09:52:24;;;;;;;1.58;0.77;;;20.60;87.30;;;;;;6184725;23;45197;-72
2022/10/19 09:54:59;;;;;;;2.25;1.00;;;20.60;87.00;;;;;;6185181;23;45553;-73
2022/10/19 09:57:28;;;;;;;1.50;0.90;;;20.60;87.00;;;;;;6184069;23;47599;-72
2022/10/19 09:59:55;;;;;;;1.35;0.85;;;20.60;86.80;;;;;;6182733;23;45249;-73
2022/10/19 10:02:30;;;;;;;1.65;0.82;;;20.70;86.90;;;;;;6183404;23;45496;-73
2022/10/19 10:05:05;;;;;;;1.25;0.75;;;20.70;86.90;;;;;;6183611;23;45382;-73
2022/10/19 10:07:36;;;;;;;1.30;0.80;;;20.70;87.00;;;;;;6183609;23;47323;-72
2022/10/19 10:10:10;;;;;;;2.28;1.00;;;20.70;86.80;;;;;;6183184;23;45153;-73
2022/10/19 10:12:39;;;;;;;1.95;0.80;;;20.70;86.90;;;;;;6183771;23;45292;-72
2022/10/19 10:15:07;;;;;;;1.70;0.75;;;20.70;86.30;;;;;;6183450;23;45363;-73
2022/10/19 10:17:37;;;;;;;1.65;0.70;;;20.70;86.50;;;;;;6182272;23;47938;-73
2022/10/19 10:20:22;;;;;;;3.03;1.08;;;20.70;86.40;;;;;;6183811;23;45197;-72
2022/10/19 10:22:55;;;;;;;4.50;1.15;;;20.70;86.60;;;;;;6183841;23;45326;-72
2022/10/19 10:25:26;;;;;;;1.48;0.82;;;20.70;87.00;;;;;;6183985;23;45316;-72
2022/10/19 10:27:57;;;;;;;2.28;0.85;;;20.70;87.10;;;;;;6183506;23;47010;-73
2022/10/19 10:30:24;;;;;;;1.92;0.80;;;20.70;87.30;;;;;;6182543;23;45288;-73
2022/10/19 10:32:54;;;;;;;1.63;0.90;;;20.70;87.40;;;;;;6181312;23;45201;-72
2022/10/19 10:35:29;;;;;;;1.42;0.80;;;20.70;87.50;;;;;;6183277;23;45488;-72
2022/10/19 10:38:07;;;;;;;2.55;1.20;;;20.60;87.60;;;;;;6180254;23;45496;-72
2022/10/19 10:40:34;;;;;;;1.73;0.77;;;20.60;87.80;;;;;;6182808;23;45273;-72
2022/10/19 10:43:06;;;;;;;1.92;1.10;;;20.60;87.80;;;;;;6182969;23;45329;-73
2022/10/19 10:45:38;;;;;;;2.20;0.90;;;20.60;87.80;;;;;;6183970;23;45418;-71
2022/10/19 10:48:16;;;;;;;1.48;0.80;;;20.60;88.60;;;;;;6181293;23;45348;-69
2022/10/19 10:50:44;;;;;;;2.95;1.00;;;20.70;88.70;;;;;;6183419;23;45215;-70
2022/10/19 10:53:33;;;;;;;3.35;1.00;;;20.80;89.20;;;;;;6183143;23;45337;-70
2022/10/19 10:55:59;;;;;;;6.97;0.90;;;20.80;90.00;;;;;;6182726;23;45197;-70
2022/10/19 10:58:36;;;;;;;2.85;1.15;;;20.80;90.30;;;;;;6178334;23;47535;-71
2022/10/19 11:01:07;;;;;;;7.43;1.08;;;20.70;90.30;;;;;;6182441;23;45323;-70
2022/10/19 11:03:37;;;;;;;5.32;0.98;;;20.80;90.30;;;;;;6183118;23;45327;-70
2022/10/19 11:06:04;;;;;;;3.80;0.93;;;20.70;90.20;;;;;;6181002;23;45254;-71
2022/10/19 11:08:38;;;;;;;3.30;0.93;;;20.70;90.10;;;;;;6182120;23;46999;-71
2022/10/19 11:11:14;;;;;;;1.95;1.00;;;20.70;90.20;;;;;;6182501;23;45229;-71
2022/10/19 11:13:48;;;;;;;1.50;0.73;;;20.70;90.20;;;;;;6181974;23;45278;-71
2022/10/19 11:16:17;;;;;;;1.42;0.88;;;20.70;90.30;;;;;;6182623;23;45480;-71
2022/10/19 11:18:49;;;;;;;1.63;0.65;;;20.70;90.40;;;;;;6182336;23;45265;-71
2022/10/19 11:21:24;;;;;;;1.92;0.93;;;20.70;90.40;;;;;;6182122;23;45309;-71
2022/10/19 11:24:01;;;;;;;1.40;0.85;;;20.70;90.40;;;;;;6183022;23;45218;-71
2022/10/19 11:26:43;;;;;;;1.25;0.90;;;20.70;90.40;;;;;;6182850;23;45248;-71
2022/10/19 11:29:35;;;;;;;2.35;0.82;;;20.70;90.50;;;;;;6182237;23;45469;-71
2022/10/19 11:32:03;;;;;;;1.80;0.85;;;20.70;90.50;;;;;;6182583;23;45522;-71
2022/10/19 11:34:44;;;;;;;2.78;0.70;;;20.70;90.40;;;;;;6183810;23;45352;-71
2022/10/19 11:37:20;;;;;;;3.60;0.77;;;20.70;90.40;;;;;;6183523;23;45243;-74
2022/10/19 11:39:57;;;;;;;1.65;0.88;;;20.70;91.40;;;;;;6186331;23;48315;-74
2022/10/19 11:42:41;;;;;;;2.95;0.65;;;20.70;91.10;;;;;;6186255;23;45713;-74
2022/10/19 11:45:22;;;;;;;1.92;0.90;;;20.70;91.00;;;;;;6186473;23;45317;-74
2022/10/19 11:48:06;;;;;;;1.50;0.90;;;20.70;90.90;;;;;;6186853;23;45144;-74
2022/10/19 11:50:45;;;;;;;1.13;0.68;;;20.70;91.10;;;;;;6185931;23;46482;-75
2022/10/19 11:53:19;;;;;;;1.70;0.80;;;20.60;91.20;;;;;;6185077;23;45346;-74
2022/10/19 11:55:53;;;;;;;3.03;0.90;;;20.70;91.20;;;;;;6184434;23;45198;-74
2022/10/19 11:58:41;;;;;;;5.30;0.90;;;20.70;91.30;;;;;;6184368;23;45400;-74
2022/10/19 12:01:16;;;;;;;2.00;0.70;;;20.60;91.20;;;;;;6184849;23;47488;-74
2022/10/19 12:04:06;;;;;;;2.35;0.70;;;20.60;91.30;;;;;;6185965;23;45148;-74
2022/10/19 12:06:45;;;;;;;0.95;0.60;;;20.60;91.30;;;;;;6186795;23;45190;-74
2022/10/19 12:09:27;;;;;;;0.88;0.63;;;20.60;91.40;;;;;;6186663;23;45122;-75
2022/10/19 12:12:07;;;;;;;1.33;0.70;;;20.70;91.50;;;;;;6186616;23;46341;-75
2022/10/19 12:14:38;;;;;;;1.30;0.70;;;20.70;91.40;;;;;;6186435;23;45083;-71
2022/10/19 12:17:10;;;;;;;1.73;0.70;;;20.70;91.40;;;;;;6185817;23;45314;-74
2022/10/19 12:19:42;;;;;;;1.08;0.60;;;20.70;91.40;;;;;;6186107;23;45216;-74
2022/10/19 12:22:18;;;;;;;1.60;0.73;;;20.70;91.40;;;;;;6185517;23;46840;-74
2022/10/19 12:24:45;;;;;;;1.60;0.70;;;20.70;91.40;;;;;;6185697;23;45207;-74
2022/10/19 12:27:16;;;;;;;0.80;0.60;;;20.70;91.40;;;;;;6186246;23;45307;-74
2022/10/19 12:29:47;;;;;;;1.58;0.80;;;20.70;91.80;;;;;;6186133;23;45178;-74
2022/10/19 12:32:19;;;;;;;1.35;0.68;;;20.70;91.30;;;;;;6186002;23;48221;-74
2022/10/19 12:34:52;;;;;;;1.65;0.80;;;20.70;91.40;;;;;;6186310;23;45095;-75
2022/10/19 12:37:26;;;;;;;3.10;0.90;;;20.70;91.50;;;;;;6186401;23;45089;-75
2022/10/19 12:39:58;;;;;;;1.30;0.50;;;20.70;91.50;;;;;;6186659;23;45066;-74
2022/10/19 12:43:20;;;;;;;2.05;0.80;;;20.70;91.50;;;;;;6186386;23;48394;-75
2022/10/19 12:45:54;;;;;;;1.83;0.65;;;20.70;91.60;;;;;;6186554;23;45150;-75
2022/10/19 12:48:23;;;;;;;1.08;0.70;;;20.70;91.70;;;;;;6186469;23;45172;-74
2022/10/19 12:51:14;;;;;;;2.03;0.60;;;20.60;91.60;;;;;;6186040;23;45205;-75
2022/10/19 12:53:47;;;;;;;0.80;0.60;;;20.60;91.70;;;;;;6184857;23;45357;-74
2022/10/19 12:56:19;;;;;;;0.80;0.40;;;20.60;91.60;;;;;;6184980;23;45154;-74
2022/10/19 12:58:51;;;;;;;1.30;0.57;;;20.60;91.50;;;;;;6185339;23;45212;-75
2022/10/19 13:01:22;;;;;;;1.02;0.70;;;20.60;91.50;;;;;;6185395;23;45551;-75
2022/10/19 13:03:52;;;;;;;1.63;0.50;;;20.60;91.50;;;;;;6185310;23;47160;-74
2022/10/19 13:06:32;;;;;;;0.60;0.40;;;20.60;91.50;;;;;;6185435;23;45285;-73
2022/10/19 13:09:04;;;;;;;1.30;0.50;;;20.70;91.60;;;;;;6186085;23;45191;-74
2022/10/19 13:11:31;;;;;;;1.08;0.50;;;20.60;91.70;;;;;;6185194;23;45391;-75
2022/10/19 13:14:00;;;;;;;0.35;0.35;;;20.60;91.40;;;;;;6185521;23;48242;-75